sensor_id;sensor_type;location;lat;lon;timestamp;P1;durP1;ratioP1;P2;durP2;ratioP2
6513;SDS011;3290;47.716;9.070;2022-11-06T00:00:35;15.77;;;10.20;;
6513;SDS011;3290;47.716;9.070;2022-11-06T00:03:01;18.40;;;11.17;;
6513;SDS011;3290;47.716;9.070;2022-11-06T00:05:27;18.80;;;11.33;;
6513;SDS011;3290;47.716;9.070;2022-11-06T00:08:32;19.37;;;12.13;;
6513;SDS011;3290;47.716;9.070;2022-11-06T00:11:00;19.33;;;11.00;;
6513;SDS011;3290;47.716;9.070;2022-11-06T00:13:31;19.17;;;10.27;;
6513;SDS011;3290;47.716;9.070;2022-11-06T00:16:00;22.23;;;12.30;;
6513;SDS011;3290;47.716;9.070;2022-11-06T00:18:26;19.20;;;11.07;;
6513;SDS011;3290;47.716;9.070;2022-11-06T00:20:51;27.93;;;11.40;;
6513;SDS011;3290;47.716;9.070;2022-11-06T00:23:20;19.27;;;10.67;;
6513;SDS011;3290;47.716;9.070;2022-11-06T00:25:45;29.03;;;11.70;;
6513;SDS011;3290;47.716;9.070;2022-11-06T00:28:10;18.10;;;10.83;;
6513;SDS011;3290;47.716;9.070;2022-11-06T00:30:36;22.40;;;12.00;;
6513;SDS011;3290;47.716;9.070;2022-11-06T00:33:01;26.13;;;12.83;;
6513;SDS011;3290;47.716;9.070;2022-11-06T00:35:27;23.90;;;13.30;;
6513;SDS011;3290;47.716;9.070;2022-11-06T00:37:52;27.60;;;12.77;;
6513;SDS011;3290;47.716;9.070;2022-11-06T00:40:18;26.70;;;12.63;;
6513;SDS011;3290;47.716;9.070;2022-11-06T00:42:43;28.27;;;11.13;;
6513;SDS011;3290;47.716;9.070;2022-11-06T00:45:09;25.73;;;13.50;;
6513;SDS011;3290;47.716;9.070;2022-11-06T00:47:34;26.73;;;13.23;;
6513;SDS011;3290;47.716;9.070;2022-11-06T00:49:59;30.10;;;13.97;;
6513;SDS011;3290;47.716;9.070;2022-11-06T00:52:26;24.87;;;14.33;;
6513;SDS011;3290;47.716;9.070;2022-11-06T00:54:53;53.37;;;14.67;;
6513;SDS011;3290;47.716;9.070;2022-11-06T00:57:18;69.17;;;15.27;;
6513;SDS011;3290;47.716;9.070;2022-11-06T00:59:44;43.10;;;14.40;;
6513;SDS011;3290;47.716;9.070;2022-11-06T01:02:09;78.13;;;15.40;;
6513;SDS011;3290;47.716;9.070;2022-11-06T01:04:34;70.93;;;14.80;;
6513;SDS011;3290;47.716;9.070;2022-11-06T01:07:00;35.63;;;13.03;;
6513;SDS011;3290;47.716;9.070;2022-11-06T01:09:26;26.20;;;13.70;;
6513;SDS011;3290;47.716;9.070;2022-11-06T01:11:53;34.60;;;14.83;;
6513;SDS011;3290;47.716;9.070;2022-11-06T01:14:21;26.60;;;14.47;;
6513;SDS011;3290;47.716;9.070;2022-11-06T01:16:47;31.30;;;15.43;;
6513;SDS011;3290;47.716;9.070;2022-11-06T01:19:13;31.30;;;14.40;;
6513;SDS011;3290;47.716;9.070;2022-11-06T01:21:41;26.40;;;15.50;;
6513;SDS011;3290;47.716;9.070;2022-11-06T01:24:09;28.53;;;14.43;;
6513;SDS011;3290;47.716;9.070;2022-11-06T01:26:38;19.60;;;11.93;;
6513;SDS011;3290;47.716;9.070;2022-11-06T01:29:04;26.10;;;13.77;;
6513;SDS011;3290;47.716;9.070;2022-11-06T01:31:31;27.27;;;13.63;;
6513;SDS011;3290;47.716;9.070;2022-11-06T01:33:58;39.27;;;14.63;;
6513;SDS011;3290;47.716;9.070;2022-11-06T01:36:25;23.80;;;14.47;;
6513;SDS011;3290;47.716;9.070;2022-11-06T01:38:52;23.47;;;12.87;;
6513;SDS011;3290;47.716;9.070;2022-11-06T01:41:21;27.87;;;13.00;;
6513;SDS011;3290;47.716;9.070;2022-11-06T01:46:19;25.73;;;12.43;;
6513;SDS011;3290;47.716;9.070;2022-11-06T01:48:47;22.40;;;13.17;;
6513;SDS011;3290;47.716;9.070;2022-11-06T01:51:35;20.87;;;12.20;;
6513;SDS011;3290;47.716;9.070;2022-11-06T01:54:09;23.20;;;13.40;;
6513;SDS011;3290;47.716;9.070;2022-11-06T01:56:36;20.00;;;13.27;;
6513;SDS011;3290;47.716;9.070;2022-11-06T01:59:03;20.23;;;12.80;;
6513;SDS011;3290;47.716;9.070;2022-11-06T02:01:31;27.90;;;13.53;;
6513;SDS011;3290;47.716;9.070;2022-11-06T02:04:06;22.50;;;12.90;;
6513;SDS011;3290;47.716;9.070;2022-11-06T02:06:33;25.70;;;13.40;;
6513;SDS011;3290;47.716;9.070;2022-11-06T02:08:59;23.07;;;14.00;;
6513;SDS011;3290;47.716;9.070;2022-11-06T02:11:25;34.63;;;14.10;;
6513;SDS011;3290;47.716;9.070;2022-11-06T02:19:51;44.00;;;13.10;;
6513;SDS011;3290;47.716;9.070;2022-11-06T02:27:53;37.40;;;14.97;;
6513;SDS011;3290;47.716;9.070;2022-11-06T02:30:27;24.60;;;13.73;;
6513;SDS011;3290;47.716;9.070;2022-11-06T02:37:57;27.60;;;14.67;;
6513;SDS011;3290;47.716;9.070;2022-11-06T02:40:28;26.20;;;14.17;;
6513;SDS011;3290;47.716;9.070;2022-11-06T02:42:57;28.20;;;17.50;;
6513;SDS011;3290;47.716;9.070;2022-11-06T02:45:26;24.70;;;14.60;;
6513;SDS011;3290;47.716;9.070;2022-11-06T02:47:56;25.73;;;15.00;;
6513;SDS011;3290;47.716;9.070;2022-11-06T02:50:24;23.63;;;13.73;;
6513;SDS011;3290;47.716;9.070;2022-11-06T02:52:55;25.33;;;15.60;;
6513;SDS011;3290;47.716;9.070;2022-11-06T02:55:45;29.43;;;14.40;;
6513;SDS011;3290;47.716;9.070;2022-11-06T02:58:47;25.50;;;14.40;;
6513;SDS011;3290;47.716;9.070;2022-11-06T03:01:20;27.80;;;15.47;;
6513;SDS011;3290;47.716;9.070;2022-11-06T03:03:53;22.03;;;13.93;;
6513;SDS011;3290;47.716;9.070;2022-11-06T03:06:26;29.53;;;15.13;;
6513;SDS011;3290;47.716;9.070;2022-11-06T03:09:02;24.73;;;13.97;;
6513;SDS011;3290;47.716;9.070;2022-11-06T03:11:32;26.70;;;16.47;;
6513;SDS011;3290;47.716;9.070;2022-11-06T03:18:10;21.90;;;13.53;;
6513;SDS011;3290;47.716;9.070;2022-11-06T03:20:11;23.07;;;13.50;;
6513;SDS011;3290;47.716;9.070;2022-11-06T03:22:55;26.90;;;14.10;;
6513;SDS011;3290;47.716;9.070;2022-11-06T03:30:51;24.70;;;13.80;;
6513;SDS011;3290;47.716;9.070;2022-11-06T03:33:41;31.33;;;15.17;;
6513;SDS011;3290;47.716;9.070;2022-11-06T03:36:09;25.70;;;14.67;;
6513;SDS011;3290;47.716;9.070;2022-11-06T03:38:40;27.00;;;15.37;;
6513;SDS011;3290;47.716;9.070;2022-11-06T03:41:11;30.60;;;14.80;;
6513;SDS011;3290;47.716;9.070;2022-11-06T03:43:43;24.10;;;15.40;;
6513;SDS011;3290;47.716;9.070;2022-11-06T03:46:12;25.37;;;14.87;;
6513;SDS011;3290;47.716;9.070;2022-11-06T03:48:45;29.97;;;17.20;;
6513;SDS011;3290;47.716;9.070;2022-11-06T03:51:39;28.20;;;16.70;;
6513;SDS011;3290;47.716;9.070;2022-11-06T03:54:17;27.03;;;17.27;;
6513;SDS011;3290;47.716;9.070;2022-11-06T03:57:06;30.83;;;18.13;;
6513;SDS011;3290;47.716;9.070;2022-11-06T03:59:46;25.60;;;14.93;;
6513;SDS011;3290;47.716;9.070;2022-11-06T04:02:15;24.50;;;15.33;;
6513;SDS011;3290;47.716;9.070;2022-11-06T04:07:15;22.60;;;15.27;;
6513;SDS011;3290;47.716;9.070;2022-11-06T04:09:50;25.27;;;14.83;;
6513;SDS011;3290;47.716;9.070;2022-11-06T04:12:37;29.97;;;14.53;;
6513;SDS011;3290;47.716;9.070;2022-11-06T04:15:25;23.60;;;14.77;;
6513;SDS011;3290;47.716;9.070;2022-11-06T04:17:54;23.87;;;14.07;;
6513;SDS011;3290;47.716;9.070;2022-11-06T04:20:20;22.10;;;13.40;;
6513;SDS011;3290;47.716;9.070;2022-11-06T04:29:02;21.80;;;14.57;;
6513;SDS011;3290;47.716;9.070;2022-11-06T04:31:53;23.40;;;14.57;;
6513;SDS011;3290;47.716;9.070;2022-11-06T04:37:23;19.60;;;13.33;;
6513;SDS011;3290;47.716;9.070;2022-11-06T04:39:57;24.87;;;15.10;;
6513;SDS011;3290;47.716;9.070;2022-11-06T04:45:13;25.67;;;15.23;;
6513;SDS011;3290;47.716;9.070;2022-11-06T04:47:46;24.13;;;13.60;;
6513;SDS011;3290;47.716;9.070;2022-11-06T04:50:13;27.27;;;14.37;;
6513;SDS011;3290;47.716;9.070;2022-11-06T04:52:41;25.77;;;16.07;;
6513;SDS011;3290;47.716;9.070;2022-11-06T04:55:09;20.57;;;13.40;;
6513;SDS011;3290;47.716;9.070;2022-11-06T04:57:34;22.50;;;13.63;;
6513;SDS011;3290;47.716;9.070;2022-11-06T04:59:59;24.83;;;15.07;;
6513;SDS011;3290;47.716;9.070;2022-11-06T05:02:25;23.90;;;14.77;;
6513;SDS011;3290;47.716;9.070;2022-11-06T05:04:51;23.30;;;15.30;;
6513;SDS011;3290;47.716;9.070;2022-11-06T05:07:16;24.50;;;15.00;;
6513;SDS011;3290;47.716;9.070;2022-11-06T05:09:44;22.97;;;14.30;;
6513;SDS011;3290;47.716;9.070;2022-11-06T05:12:10;21.80;;;13.53;;
6513;SDS011;3290;47.716;9.070;2022-11-06T05:14:35;23.27;;;14.57;;
6513;SDS011;3290;47.716;9.070;2022-11-06T05:17:00;24.83;;;14.80;;
6513;SDS011;3290;47.716;9.070;2022-11-06T05:19:29;22.60;;;13.70;;
6513;SDS011;3290;47.716;9.070;2022-11-06T05:21:54;20.80;;;13.33;;
6513;SDS011;3290;47.716;9.070;2022-11-06T05:24:38;28.93;;;13.47;;
6513;SDS011;3290;47.716;9.070;2022-11-06T05:27:03;29.20;;;12.37;;
6513;SDS011;3290;47.716;9.070;2022-11-06T05:29:28;29.30;;;13.43;;
6513;SDS011;3290;47.716;9.070;2022-11-06T05:31:54;22.50;;;13.30;;
6513;SDS011;3290;47.716;9.070;2022-11-06T05:34:20;24.33;;;14.30;;
6513;SDS011;3290;47.716;9.070;2022-11-06T05:36:45;20.10;;;13.90;;
6513;SDS011;3290;47.716;9.070;2022-11-06T05:39:11;27.93;;;15.33;;
6513;SDS011;3290;47.716;9.070;2022-11-06T05:41:36;24.57;;;14.10;;
6513;SDS011;3290;47.716;9.070;2022-11-06T05:44:01;25.23;;;13.67;;
6513;SDS011;3290;47.716;9.070;2022-11-06T05:46:27;24.83;;;13.53;;
6513;SDS011;3290;47.716;9.070;2022-11-06T05:48:52;21.03;;;13.40;;
6513;SDS011;3290;47.716;9.070;2022-11-06T05:51:17;22.20;;;13.10;;
6513;SDS011;3290;47.716;9.070;2022-11-06T05:53:44;24.07;;;13.70;;
6513;SDS011;3290;47.716;9.070;2022-11-06T05:56:09;19.10;;;13.03;;
6513;SDS011;3290;47.716;9.070;2022-11-06T05:58:35;23.03;;;13.93;;
6513;SDS011;3290;47.716;9.070;2022-11-06T06:01:00;23.33;;;14.13;;
6513;SDS011;3290;47.716;9.070;2022-11-06T06:03:26;22.00;;;13.70;;
6513;SDS011;3290;47.716;9.070;2022-11-06T06:05:51;26.83;;;14.10;;
6513;SDS011;3290;47.716;9.070;2022-11-06T06:08:16;28.83;;;14.67;;
6513;SDS011;3290;47.716;9.070;2022-11-06T06:10:43;22.93;;;14.30;;
6513;SDS011;3290;47.716;9.070;2022-11-06T06:13:09;25.73;;;14.07;;
6513;SDS011;3290;47.716;9.070;2022-11-06T06:15:39;23.37;;;13.07;;
6513;SDS011;3290;47.716;9.070;2022-11-06T06:18:05;22.90;;;15.10;;
6513;SDS011;3290;47.716;9.070;2022-11-06T06:20:31;20.97;;;12.77;;
6513;SDS011;3290;47.716;9.070;2022-11-06T06:22:58;22.03;;;13.50;;
6513;SDS011;3290;47.716;9.070;2022-11-06T06:25:23;21.57;;;12.73;;
6513;SDS011;3290;47.716;9.070;2022-11-06T06:27:50;22.80;;;14.07;;
6513;SDS011;3290;47.716;9.070;2022-11-06T06:30:15;19.33;;;12.70;;
6513;SDS011;3290;47.716;9.070;2022-11-06T06:32:42;19.73;;;12.70;;
6513;SDS011;3290;47.716;9.070;2022-11-06T06:35:07;22.27;;;12.87;;
6513;SDS011;3290;47.716;9.070;2022-11-06T06:37:33;23.90;;;13.67;;
6513;SDS011;3290;47.716;9.070;2022-11-06T06:39:59;18.10;;;12.33;;
6513;SDS011;3290;47.716;9.070;2022-11-06T06:42:24;37.40;;;19.47;;
6513;SDS011;3290;47.716;9.070;2022-11-06T06:44:49;41.83;;;20.73;;
6513;SDS011;3290;47.716;9.070;2022-11-06T06:47:15;23.77;;;13.20;;
6513;SDS011;3290;47.716;9.070;2022-11-06T06:49:43;14.67;;;9.70;;
6513;SDS011;3290;47.716;9.070;2022-11-06T06:52:09;13.10;;;9.20;;
6513;SDS011;3290;47.716;9.070;2022-11-06T06:54:35;14.90;;;9.90;;
6513;SDS011;3290;47.716;9.070;2022-11-06T06:57:00;19.53;;;11.00;;
6513;SDS011;3290;47.716;9.070;2022-11-06T06:59:29;20.50;;;12.17;;
6513;SDS011;3290;47.716;9.070;2022-11-06T07:01:55;23.70;;;13.07;;
6513;SDS011;3290;47.716;9.070;2022-11-06T07:04:21;19.83;;;12.50;;
6513;SDS011;3290;47.716;9.070;2022-11-06T07:06:47;21.10;;;11.80;;
6513;SDS011;3290;47.716;9.070;2022-11-06T07:09:13;20.53;;;12.90;;
6513;SDS011;3290;47.716;9.070;2022-11-06T07:11:39;21.80;;;12.50;;
6513;SDS011;3290;47.716;9.070;2022-11-06T07:14:04;20.63;;;11.67;;
6513;SDS011;3290;47.716;9.070;2022-11-06T07:16:30;28.50;;;15.97;;
6513;SDS011;3290;47.716;9.070;2022-11-06T07:18:56;34.23;;;17.70;;
6513;SDS011;3290;47.716;9.070;2022-11-06T07:21:22;34.13;;;17.20;;
6513;SDS011;3290;47.716;9.070;2022-11-06T07:23:48;25.13;;;15.20;;
6513;SDS011;3290;47.716;9.070;2022-11-06T07:26:14;23.73;;;13.00;;
6513;SDS011;3290;47.716;9.070;2022-11-06T07:28:40;20.63;;;10.80;;
6513;SDS011;3290;47.716;9.070;2022-11-06T07:31:06;15.17;;;9.70;;
6513;SDS011;3290;47.716;9.070;2022-11-06T07:33:33;15.30;;;9.20;;
6513;SDS011;3290;47.716;9.070;2022-11-06T07:36:03;17.07;;;9.30;;
6513;SDS011;3290;47.716;9.070;2022-11-06T07:38:33;14.00;;;9.60;;
6513;SDS011;3290;47.716;9.070;2022-11-06T07:41:00;12.70;;;7.77;;
6513;SDS011;3290;47.716;9.070;2022-11-06T07:43:30;12.10;;;8.37;;
6513;SDS011;3290;47.716;9.070;2022-11-06T07:45:59;10.13;;;7.27;;
6513;SDS011;3290;47.716;9.070;2022-11-06T07:48:27;10.20;;;7.13;;
6513;SDS011;3290;47.716;9.070;2022-11-06T07:50:53;10.97;;;7.70;;
6513;SDS011;3290;47.716;9.070;2022-11-06T07:53:18;14.00;;;8.23;;
6513;SDS011;3290;47.716;9.070;2022-11-06T07:55:48;13.40;;;9.10;;
6513;SDS011;3290;47.716;9.070;2022-11-06T07:58:14;14.30;;;8.00;;
6513;SDS011;3290;47.716;9.070;2022-11-06T08:00:44;8.73;;;7.10;;
6513;SDS011;3290;47.716;9.070;2022-11-06T08:03:10;10.27;;;6.17;;
6513;SDS011;3290;47.716;9.070;2022-11-06T08:05:36;9.43;;;6.70;;
6513;SDS011;3290;47.716;9.070;2022-11-06T08:08:01;12.80;;;7.33;;
6513;SDS011;3290;47.716;9.070;2022-11-06T08:10:26;9.23;;;6.60;;
6513;SDS011;3290;47.716;9.070;2022-11-06T08:12:52;7.57;;;6.40;;
6513;SDS011;3290;47.716;9.070;2022-11-06T08:15:17;7.80;;;5.47;;
6513;SDS011;3290;47.716;9.070;2022-11-06T08:17:42;9.03;;;6.10;;
6513;SDS011;3290;47.716;9.070;2022-11-06T08:20:08;9.23;;;6.10;;
6513;SDS011;3290;47.716;9.070;2022-11-06T08:22:34;7.50;;;5.30;;
6513;SDS011;3290;47.716;9.070;2022-11-06T08:24:59;8.87;;;6.57;;
6513;SDS011;3290;47.716;9.070;2022-11-06T08:27:24;6.07;;;5.30;;
6513;SDS011;3290;47.716;9.070;2022-11-06T08:29:50;8.33;;;6.10;;
6513;SDS011;3290;47.716;9.070;2022-11-06T08:32:15;6.80;;;5.60;;
6513;SDS011;3290;47.716;9.070;2022-11-06T08:34:40;9.10;;;6.10;;
6513;SDS011;3290;47.716;9.070;2022-11-06T08:37:06;8.97;;;6.20;;
6513;SDS011;3290;47.716;9.070;2022-11-06T08:39:33;8.63;;;6.17;;
6513;SDS011;3290;47.716;9.070;2022-11-06T08:41:58;7.60;;;5.80;;
6513;SDS011;3290;47.716;9.070;2022-11-06T08:44:23;7.40;;;5.60;;
6513;SDS011;3290;47.716;9.070;2022-11-06T08:46:49;7.30;;;6.10;;
6513;SDS011;3290;47.716;9.070;2022-11-06T08:49:14;9.10;;;5.40;;
6513;SDS011;3290;47.716;9.070;2022-11-06T08:51:40;7.80;;;5.60;;
6513;SDS011;3290;47.716;9.070;2022-11-06T08:54:05;5.60;;;4.77;;
6513;SDS011;3290;47.716;9.070;2022-11-06T08:56:30;6.17;;;4.87;;
6513;SDS011;3290;47.716;9.070;2022-11-06T08:58:55;5.37;;;4.63;;
6513;SDS011;3290;47.716;9.070;2022-11-06T09:01:21;6.13;;;4.87;;
6513;SDS011;3290;47.716;9.070;2022-11-06T09:03:47;8.50;;;6.13;;
6513;SDS011;3290;47.716;9.070;2022-11-06T09:06:13;10.20;;;5.50;;
6513;SDS011;3290;47.716;9.070;2022-11-06T09:08:38;10.13;;;5.70;;
6513;SDS011;3290;47.716;9.070;2022-11-06T09:11:04;7.40;;;4.70;;
6513;SDS011;3290;47.716;9.070;2022-11-06T09:13:31;5.13;;;4.10;;
6513;SDS011;3290;47.716;9.070;2022-11-06T09:15:58;5.60;;;4.67;;
6513;SDS011;3290;47.716;9.070;2022-11-06T09:18:24;4.40;;;4.00;;
6513;SDS011;3290;47.716;9.070;2022-11-06T09:20:52;5.10;;;4.30;;
6513;SDS011;3290;47.716;9.070;2022-11-06T09:23:19;4.70;;;4.00;;
6513;SDS011;3290;47.716;9.070;2022-11-06T09:25:45;6.27;;;4.97;;
6513;SDS011;3290;47.716;9.070;2022-11-06T09:28:10;6.10;;;4.70;;
6513;SDS011;3290;47.716;9.070;2022-11-06T09:30:35;6.07;;;4.60;;
6513;SDS011;3290;47.716;9.070;2022-11-06T09:33:01;5.80;;;4.63;;
6513;SDS011;3290;47.716;9.070;2022-11-06T09:35:27;7.90;;;5.00;;
6513;SDS011;3290;47.716;9.070;2022-11-06T09:37:59;5.00;;;4.20;;
6513;SDS011;3290;47.716;9.070;2022-11-06T09:40:30;5.03;;;3.83;;
6513;SDS011;3290;47.716;9.070;2022-11-06T09:43:01;4.73;;;3.97;;
6513;SDS011;3290;47.716;9.070;2022-11-06T09:45:37;6.03;;;4.30;;
6513;SDS011;3290;47.716;9.070;2022-11-06T09:50:34;6.60;;;4.10;;
6513;SDS011;3290;47.716;9.070;2022-11-06T09:55:54;8.27;;;3.70;;
6513;SDS011;3290;47.716;9.070;2022-11-06T09:58:24;4.87;;;3.63;;
6513;SDS011;3290;47.716;9.070;2022-11-06T10:00:54;5.07;;;4.03;;
6513;SDS011;3290;47.716;9.070;2022-11-06T10:03:25;3.80;;;3.40;;
6513;SDS011;3290;47.716;9.070;2022-11-06T10:05:56;4.77;;;3.43;;
6513;SDS011;3290;47.716;9.070;2022-11-06T10:08:26;4.47;;;3.70;;
6513;SDS011;3290;47.716;9.070;2022-11-06T10:19:12;4.80;;;3.90;;
6513;SDS011;3290;47.716;9.070;2022-11-06T10:24:29;3.60;;;3.10;;
6513;SDS011;3290;47.716;9.070;2022-11-06T10:27:13;3.30;;;3.00;;
6513;SDS011;3290;47.716;9.070;2022-11-06T10:37:54;4.33;;;3.93;;
6513;SDS011;3290;47.716;9.070;2022-11-06T10:40:27;3.13;;;2.67;;
6513;SDS011;3290;47.716;9.070;2022-11-06T10:45:27;4.30;;;3.33;;
6513;SDS011;3290;47.716;9.070;2022-11-06T10:47:54;3.87;;;3.20;;
6513;SDS011;3290;47.716;9.070;2022-11-06T10:50:23;6.57;;;3.97;;
6513;SDS011;3290;47.716;9.070;2022-11-06T10:58:32;5.30;;;4.23;;
6513;SDS011;3290;47.716;9.070;2022-11-06T11:00:59;7.20;;;5.50;;
6513;SDS011;3290;47.716;9.070;2022-11-06T11:03:35;6.20;;;4.70;;
6513;SDS011;3290;47.716;9.070;2022-11-06T11:06:05;8.33;;;5.13;;
6513;SDS011;3290;47.716;9.070;2022-11-06T11:13:38;6.10;;;5.03;;
6513;SDS011;3290;47.716;9.070;2022-11-06T11:16:11;6.63;;;4.20;;
6513;SDS011;3290;47.716;9.070;2022-11-06T11:18:37;11.03;;;4.50;;
6513;SDS011;3290;47.716;9.070;2022-11-06T11:23:37;6.17;;;4.77;;
6513;SDS011;3290;47.716;9.070;2022-11-06T11:26:22;6.17;;;4.57;;
6513;SDS011;3290;47.716;9.070;2022-11-06T11:28:53;5.67;;;4.90;;
6513;SDS011;3290;47.716;9.070;2022-11-06T11:31:19;6.40;;;4.87;;
6513;SDS011;3290;47.716;9.070;2022-11-06T11:33:54;4.97;;;4.27;;
6513;SDS011;3290;47.716;9.070;2022-11-06T11:36:22;7.00;;;4.53;;
6513;SDS011;3290;47.716;9.070;2022-11-06T11:38:48;4.93;;;4.03;;
6513;SDS011;3290;47.716;9.070;2022-11-06T11:46:31;4.67;;;3.33;;
6513;SDS011;3290;47.716;9.070;2022-11-06T11:48:57;4.73;;;3.90;;
6513;SDS011;3290;47.716;9.070;2022-11-06T11:51:37;5.80;;;4.80;;
6513;SDS011;3290;47.716;9.070;2022-11-06T11:56:42;6.03;;;4.10;;
6513;SDS011;3290;47.716;9.070;2022-11-06T11:59:31;5.53;;;4.10;;
6513;SDS011;3290;47.716;9.070;2022-11-06T12:02:48;4.30;;;3.47;;
6513;SDS011;3290;47.716;9.070;2022-11-06T12:04:55;4.83;;;3.70;;
6513;SDS011;3290;47.716;9.070;2022-11-06T12:07:29;5.07;;;3.70;;
6513;SDS011;3290;47.716;9.070;2022-11-06T12:09:57;5.27;;;3.80;;
6513;SDS011;3290;47.716;9.070;2022-11-06T12:15:03;4.37;;;3.77;;
6513;SDS011;3290;47.716;9.070;2022-11-06T12:17:35;5.00;;;4.03;;
6513;SDS011;3290;47.716;9.070;2022-11-06T12:20:04;4.97;;;3.80;;
6513;SDS011;3290;47.716;9.070;2022-11-06T12:22:36;4.03;;;3.30;;
6513;SDS011;3290;47.716;9.070;2022-11-06T12:25:13;4.07;;;3.67;;
6513;SDS011;3290;47.716;9.070;2022-11-06T12:27:44;5.90;;;3.90;;
6513;SDS011;3290;47.716;9.070;2022-11-06T12:30:15;7.07;;;4.40;;
6513;SDS011;3290;47.716;9.070;2022-11-06T12:35:30;6.40;;;4.57;;
6513;SDS011;3290;47.716;9.070;2022-11-06T12:41:15;7.10;;;4.80;;
6513;SDS011;3290;47.716;9.070;2022-11-06T12:44:02;6.63;;;4.73;;
6513;SDS011;3290;47.716;9.070;2022-11-06T12:52:37;6.70;;;5.20;;
6513;SDS011;3290;47.716;9.070;2022-11-06T12:58:17;7.00;;;4.60;;
6513;SDS011;3290;47.716;9.070;2022-11-06T13:01:00;11.90;;;5.87;;
6513;SDS011;3290;47.716;9.070;2022-11-06T13:06:53;8.60;;;6.10;;
6513;SDS011;3290;47.716;9.070;2022-11-06T13:09:31;8.50;;;5.90;;
6513;SDS011;3290;47.716;9.070;2022-11-06T13:18:11;8.30;;;5.30;;
6513;SDS011;3290;47.716;9.070;2022-11-06T13:23:17;8.07;;;5.57;;
6513;SDS011;3290;47.716;9.070;2022-11-06T13:28:56;8.73;;;5.43;;
6513;SDS011;3290;47.716;9.070;2022-11-06T13:31:34;7.50;;;5.20;;
6513;SDS011;3290;47.716;9.070;2022-11-06T13:34:05;8.97;;;6.00;;
6513;SDS011;3290;47.716;9.070;2022-11-06T13:36:37;9.07;;;6.23;;
6513;SDS011;3290;47.716;9.070;2022-11-06T13:39:08;10.67;;;5.40;;
6513;SDS011;3290;47.716;9.070;2022-11-06T13:41:39;7.23;;;5.60;;
6513;SDS011;3290;47.716;9.070;2022-11-06T13:44:09;6.83;;;4.97;;
6513;SDS011;3290;47.716;9.070;2022-11-06T13:46:48;9.83;;;6.17;;
6513;SDS011;3290;47.716;9.070;2022-11-06T13:49:28;7.70;;;5.80;;
6513;SDS011;3290;47.716;9.070;2022-11-06T13:55:19;7.60;;;5.90;;
6513;SDS011;3290;47.716;9.070;2022-11-06T14:01:12;8.97;;;5.80;;
6513;SDS011;3290;47.716;9.070;2022-11-06T14:06:53;11.33;;;6.27;;
6513;SDS011;3290;47.716;9.070;2022-11-06T14:09:24;11.80;;;6.23;;
6513;SDS011;3290;47.716;9.070;2022-11-06T14:11:53;11.37;;;6.87;;
6513;SDS011;3290;47.716;9.070;2022-11-06T14:22:29;9.80;;;6.10;;
6513;SDS011;3290;47.716;9.070;2022-11-06T14:24:57;12.27;;;7.43;;
6513;SDS011;3290;47.716;9.070;2022-11-06T14:29:56;9.63;;;6.50;;
6513;SDS011;3290;47.716;9.070;2022-11-06T14:32:46;9.93;;;6.20;;
6513;SDS011;3290;47.716;9.070;2022-11-06T14:40:33;8.70;;;6.10;;
6513;SDS011;3290;47.716;9.070;2022-11-06T14:42:58;10.73;;;6.07;;
6513;SDS011;3290;47.716;9.070;2022-11-06T14:45:24;10.60;;;5.90;;
6513;SDS011;3290;47.716;9.070;2022-11-06T14:47:52;8.90;;;5.90;;
6513;SDS011;3290;47.716;9.070;2022-11-06T14:53:14;6.23;;;5.10;;
6513;SDS011;3290;47.716;9.070;2022-11-06T14:55:59;7.23;;;5.60;;
6513;SDS011;3290;47.716;9.070;2022-11-06T15:09:01;13.27;;;7.27;;
6513;SDS011;3290;47.716;9.070;2022-11-06T15:16:40;67.93;;;28.30;;
6513;SDS011;3290;47.716;9.070;2022-11-06T15:19:21;89.77;;;32.67;;
6513;SDS011;3290;47.716;9.070;2022-11-06T15:25:21;14.67;;;8.30;;
6513;SDS011;3290;47.716;9.070;2022-11-06T15:28:48;18.93;;;10.33;;
6513;SDS011;3290;47.716;9.070;2022-11-06T15:30:48;28.57;;;16.50;;
6513;SDS011;3290;47.716;9.070;2022-11-06T15:33:29;25.83;;;13.87;;
6513;SDS011;3290;47.716;9.070;2022-11-06T15:36:03;122.00;;;49.77;;
6513;SDS011;3290;47.716;9.070;2022-11-06T15:38:41;106.27;;;46.90;;
6513;SDS011;3290;47.716;9.070;2022-11-06T15:41:12;82.90;;;40.10;;
6513;SDS011;3290;47.716;9.070;2022-11-06T15:43:42;33.50;;;19.43;;
6513;SDS011;3290;47.716;9.070;2022-11-06T15:51:49;13.67;;;8.23;;
6513;SDS011;3290;47.716;9.070;2022-11-06T15:54:28;22.30;;;12.57;;
6513;SDS011;3290;47.716;9.070;2022-11-06T15:57:05;16.90;;;9.93;;
6513;SDS011;3290;47.716;9.070;2022-11-06T15:59:32;17.03;;;9.77;;
6513;SDS011;3290;47.716;9.070;2022-11-06T16:01:58;14.03;;;9.10;;
6513;SDS011;3290;47.716;9.070;2022-11-06T16:04:29;12.73;;;8.17;;
6513;SDS011;3290;47.716;9.070;2022-11-06T16:06:56;17.30;;;8.30;;
6513;SDS011;3290;47.716;9.070;2022-11-06T16:09:24;19.83;;;9.20;;
6513;SDS011;3290;47.716;9.070;2022-11-06T16:11:50;12.60;;;7.30;;
6513;SDS011;3290;47.716;9.070;2022-11-06T16:14:17;12.17;;;7.50;;
6513;SDS011;3290;47.716;9.070;2022-11-06T16:16:44;13.70;;;7.57;;
6513;SDS011;3290;47.716;9.070;2022-11-06T16:19:16;11.23;;;7.63;;
6513;SDS011;3290;47.716;9.070;2022-11-06T16:21:47;13.00;;;8.13;;
6513;SDS011;3290;47.716;9.070;2022-11-06T16:24:42;17.17;;;10.60;;
6513;SDS011;3290;47.716;9.070;2022-11-06T16:27:08;15.90;;;9.00;;
6513;SDS011;3290;47.716;9.070;2022-11-06T16:29:35;15.83;;;11.07;;
6513;SDS011;3290;47.716;9.070;2022-11-06T16:32:08;16.90;;;9.90;;
6513;SDS011;3290;47.716;9.070;2022-11-06T16:34:54;17.97;;;9.87;;
6513;SDS011;3290;47.716;9.070;2022-11-06T16:39:51;14.87;;;9.77;;
6513;SDS011;3290;47.716;9.070;2022-11-06T16:44:59;16.73;;;10.27;;
6513;SDS011;3290;47.716;9.070;2022-11-06T16:47:26;15.90;;;9.90;;
6513;SDS011;3290;47.716;9.070;2022-11-06T16:49:55;23.83;;;12.87;;
6513;SDS011;3290;47.716;9.070;2022-11-06T16:55:02;32.40;;;17.17;;
6513;SDS011;3290;47.716;9.070;2022-11-06T16:57:32;23.90;;;9.90;;
6513;SDS011;3290;47.716;9.070;2022-11-06T17:00:27;57.23;;;22.40;;
6513;SDS011;3290;47.716;9.070;2022-11-06T17:05:26;12.73;;;8.27;;
6513;SDS011;3290;47.716;9.070;2022-11-06T17:10:41;10.37;;;7.83;;
6513;SDS011;3290;47.716;9.070;2022-11-06T17:13:12;16.07;;;8.93;;
6513;SDS011;3290;47.716;9.070;2022-11-06T17:15:40;10.70;;;8.10;;
6513;SDS011;3290;47.716;9.070;2022-11-06T17:18:06;11.33;;;7.50;;
6513;SDS011;3290;47.716;9.070;2022-11-06T17:20:34;11.57;;;7.63;;
6513;SDS011;3290;47.716;9.070;2022-11-06T17:23:00;19.47;;;10.83;;
6513;SDS011;3290;47.716;9.070;2022-11-06T17:25:26;17.40;;;11.13;;
6513;SDS011;3290;47.716;9.070;2022-11-06T17:27:51;17.40;;;9.80;;
6513;SDS011;3290;47.716;9.070;2022-11-06T17:30:17;24.60;;;12.80;;
6513;SDS011;3290;47.716;9.070;2022-11-06T17:32:42;17.30;;;9.70;;
6513;SDS011;3290;47.716;9.070;2022-11-06T17:35:07;11.40;;;8.27;;
6513;SDS011;3290;47.716;9.070;2022-11-06T17:37:34;15.47;;;8.23;;
6513;SDS011;3290;47.716;9.070;2022-11-06T17:40:00;11.13;;;8.50;;
6513;SDS011;3290;47.716;9.070;2022-11-06T17:42:25;13.47;;;10.53;;
6513;SDS011;3290;47.716;9.070;2022-11-06T17:44:51;17.47;;;9.90;;
6513;SDS011;3290;47.716;9.070;2022-11-06T17:47:16;16.63;;;10.17;;
6513;SDS011;3290;47.716;9.070;2022-11-06T17:49:41;11.40;;;7.30;;
6513;SDS011;3290;47.716;9.070;2022-11-06T17:52:07;11.13;;;7.30;;
6513;SDS011;3290;47.716;9.070;2022-11-06T17:54:33;11.53;;;7.90;;
6513;SDS011;3290;47.716;9.070;2022-11-06T17:57:04;14.03;;;8.67;;
6513;SDS011;3290;47.716;9.070;2022-11-06T17:59:31;20.67;;;12.17;;
6513;SDS011;3290;47.716;9.070;2022-11-06T18:01:56;21.80;;;10.83;;
6513;SDS011;3290;47.716;9.070;2022-11-06T18:04:23;20.33;;;11.27;;
6513;SDS011;3290;47.716;9.070;2022-11-06T18:06:50;21.87;;;11.83;;
6513;SDS011;3290;47.716;9.070;2022-11-06T18:09:17;20.80;;;12.57;;
6513;SDS011;3290;47.716;9.070;2022-11-06T18:11:44;15.67;;;9.83;;
6513;SDS011;3290;47.716;9.070;2022-11-06T18:14:09;17.40;;;9.50;;
6513;SDS011;3290;47.716;9.070;2022-11-06T18:16:36;24.47;;;13.57;;
6513;SDS011;3290;47.716;9.070;2022-11-06T18:19:07;29.90;;;14.80;;
6513;SDS011;3290;47.716;9.070;2022-11-06T18:21:34;21.80;;;10.30;;